GFA178 OEMA-OBBI
Flight info
| Callsign | GFA178 |
|---|---|
| Flight time | 1h 28m |
| Altitude | 35000 |
| Route | MIXUG1C MIXUG Q46 GAS L308 NAGSA J874 MUSRI L604 KFA M691 LADNA LADNA1 |
| Aircraft | A320/M-SDE3FGHIRWY/LB1 |
Departure
| Time | 2026-04-25 23:56 |
|---|---|
| Airport | Prince Mohammad Bin Abdulaziz Airport (OEMA) |
Arrival
| Time | 2026-04-26 01:24 |
|---|---|
| Airport | Bahrain International Airport (OBBI) |
| Time | Latitude | Longitude | Altitude | Speed | Heading |
|---|---|---|---|---|---|
| 2026-04-25 23:40 | 24.55252 | 39.71338 | 2078 ft | 0 kts | 79° |
| 2026-04-25 23:49 | 24.55249 | 39.71322 | 2105 ft | 2 kts | 79° |
| 2026-04-25 23:49 | 24.55246 | 39.71304 | 2105 ft | 2 kts | 79° |
| 2026-04-25 23:49 | 24.55243 | 39.71285 | 2105 ft | 2 kts | 79° |
| 2026-04-25 23:50 | 24.55239 | 39.71267 | 2105 ft | 2 kts | 79° |
| 2026-04-25 23:50 | 24.55236 | 39.71248 | 2105 ft | 2 kts | 79° |
| 2026-04-25 23:50 | 24.55233 | 39.71229 | 2105 ft | 3 kts | 79° |
| 2026-04-25 23:50 | 24.55230 | 39.71211 | 2105 ft | 2 kts | 58° |
| 2026-04-25 23:51 | 24.55217 | 39.71200 | 2107 ft | 1 kts | 355° |
| 2026-04-25 23:52 | 24.55221 | 39.71198 | 2108 ft | 5 kts | 340° |
| 2026-04-25 23:52 | 24.55229 | 39.71012 | 2107 ft | 22 kts | 298° |
| 2026-04-25 23:52 | 24.55549 | 39.70951 | 2106 ft | 61 kts | 1° |
| 2026-04-25 23:53 | 24.55947 | 39.70886 | 2107 ft | 55 kts | 347° |
| 2026-04-25 23:53 | 24.56307 | 39.70805 | 2108 ft | 51 kts | 350° |
| 2026-04-25 23:53 | 24.56642 | 39.70738 | 2107 ft | 47 kts | 349° |
| 2026-04-25 23:53 | 24.56957 | 39.70667 | 2106 ft | 45 kts | 348° |
| 2026-04-25 23:54 | 24.57255 | 39.70607 | 2106 ft | 43 kts | 349° |
| 2026-04-25 23:54 | 24.57506 | 39.70554 | 2107 ft | 23 kts | 348° |
| 2026-04-25 23:54 | 24.57558 | 39.70446 | 2110 ft | 17 kts | 262° |
| 2026-04-25 23:54 | 24.57497 | 39.70365 | 2110 ft | 15 kts | 179° |
| 2026-04-25 23:55 | 24.57365 | 39.70393 | 2112 ft | 37 kts | 169° |
| 2026-04-25 23:55 | 24.56822 | 39.70510 | 2110 ft | 119 kts | 169° |
| 2026-04-25 23:55 | 24.55778 | 39.70728 | 2113 ft | 182 kts | 169° |
| 2026-04-25 23:55 | 24.54474 | 39.71001 | 2751 ft | 192 kts | 169° |
| 2026-04-25 23:56 | 24.53137 | 39.71283 | 3443 ft | 204 kts | 169° |
| 2026-04-25 23:56 | 24.51673 | 39.71590 | 3613 ft | 226 kts | 169° |
| 2026-04-25 23:56 | 24.50099 | 39.71923 | 3861 ft | 245 kts | 169° |
| 2026-04-25 23:56 | 24.48461 | 39.72598 | 4210 ft | 264 kts | 144° |
| 2026-04-25 23:57 | 24.47244 | 39.74149 | 4726 ft | 276 kts | 114° |
| 2026-04-25 23:57 | 24.46904 | 39.76210 | 5408 ft | 279 kts | 83° |
| 2026-04-25 23:57 | 24.47555 | 39.78152 | 6129 ft | 281 kts | 52° |
| 2026-04-25 23:57 | 24.48896 | 39.79726 | 6873 ft | 283 kts | 44° |
| 2026-04-25 23:58 | 24.50316 | 39.81251 | 7539 ft | 289 kts | 43° |
| 2026-04-25 23:58 | 24.51775 | 39.82805 | 8211 ft | 295 kts | 43° |
| 2026-04-25 23:58 | 24.53256 | 39.84383 | 8904 ft | 300 kts | 44° |
| 2026-04-25 23:58 | 24.54765 | 39.85996 | 9589 ft | 305 kts | 44° |
| 2026-04-25 23:59 | 24.56298 | 39.87645 | 10195 ft | 313 kts | 44° |
| 2026-04-25 23:59 | 24.57907 | 39.89383 | 10406 ft | 336 kts | 44° |
| 2026-04-25 23:59 | 24.59628 | 39.91242 | 10606 ft | 356 kts | 44° |
| 2026-04-25 23:59 | 24.61417 | 39.93178 | 11110 ft | 365 kts | 45° |
| 2026-04-26 00:00 | 24.63242 | 39.95155 | 11689 ft | 371 kts | 45° |
| 2026-04-26 00:00 | 24.65095 | 39.97165 | 12274 ft | 378 kts | 45° |
| 2026-04-26 00:00 | 24.66981 | 39.99209 | 12844 ft | 384 kts | 45° |
| 2026-04-26 00:00 | 24.68897 | 40.01283 | 13457 ft | 390 kts | 46° |
| 2026-04-26 00:01 | 24.70842 | 40.03392 | 13997 ft | 396 kts | 45° |
| 2026-04-26 00:01 | 24.72816 | 40.05531 | 14522 ft | 401 kts | 45° |
| 2026-04-26 00:01 | 24.74820 | 40.07696 | 15057 ft | 405 kts | 45° |
| 2026-04-26 00:01 | 24.76842 | 40.09881 | 15587 ft | 410 kts | 44° |
| 2026-04-26 00:02 | 24.78884 | 40.12096 | 16100 ft | 415 kts | 44° |
| 2026-04-26 00:02 | 24.80920 | 40.14313 | 16628 ft | 419 kts | 44° |
| 2026-04-26 00:02 | 24.83002 | 40.16583 | 17162 ft | 424 kts | 44° |
| 2026-04-26 00:02 | 24.85112 | 40.18886 | 17675 ft | 429 kts | 43° |
| 2026-04-26 00:03 | 24.87243 | 40.21209 | 18189 ft | 434 kts | 43° |
| 2026-04-26 00:03 | 24.89406 | 40.23564 | 18652 ft | 439 kts | 43° |
| 2026-04-26 00:03 | 24.91586 | 40.25934 | 19147 ft | 442 kts | 43° |
| 2026-04-26 00:03 | 24.93782 | 40.28321 | 19677 ft | 444 kts | 43° |
| 2026-04-26 00:04 | 24.95985 | 40.30719 | 20176 ft | 447 kts | 43° |
| 2026-04-26 00:04 | 24.98205 | 40.33137 | 20692 ft | 450 kts | 43° |
| 2026-04-26 00:04 | 25.00438 | 40.35572 | 21188 ft | 453 kts | 43° |
| 2026-04-26 00:04 | 25.02684 | 40.38022 | 21687 ft | 456 kts | 43° |
| 2026-04-26 00:05 | 25.04947 | 40.40493 | 22180 ft | 460 kts | 43° |
| 2026-04-26 00:05 | 25.07224 | 40.42986 | 22648 ft | 462 kts | 43° |
| 2026-04-26 00:05 | 25.09511 | 40.45493 | 23137 ft | 465 kts | 43° |
| 2026-04-26 00:05 | 25.11815 | 40.48015 | 23591 ft | 468 kts | 43° |
| 2026-04-26 00:06 | 25.14133 | 40.50551 | 23956 ft | 471 kts | 43° |
| 2026-04-26 00:06 | 25.16465 | 40.53106 | 24307 ft | 474 kts | 42° |
| 2026-04-26 00:06 | 25.18016 | 40.54804 | 24542 ft | 476 kts | 42° |
| 2026-04-26 00:06 | 25.20368 | 40.57382 | 24870 ft | 479 kts | 42° |
| 2026-04-26 00:07 | 25.22741 | 40.59984 | 25196 ft | 482 kts | 41° |
| 2026-04-26 00:07 | 25.25125 | 40.62603 | 25509 ft | 485 kts | 41° |
| 2026-04-26 00:07 | 25.27524 | 40.65242 | 25822 ft | 488 kts | 41° |
| 2026-04-26 00:07 | 25.29935 | 40.67893 | 26113 ft | 491 kts | 41° |
| 2026-04-26 00:08 | 25.32363 | 40.70563 | 26413 ft | 494 kts | 40° |
| 2026-04-26 00:08 | 25.34706 | 40.73370 | 26700 ft | 500 kts | 48° |
| 2026-04-26 00:08 | 25.36688 | 40.76560 | 26972 ft | 507 kts | 58° |
| 2026-04-26 00:08 | 25.38239 | 40.80079 | 27262 ft | 513 kts | 66° |
| 2026-04-26 00:09 | 25.39583 | 40.83754 | 27478 ft | 517 kts | 66° |
| 2026-04-26 00:09 | 25.40939 | 40.87454 | 27711 ft | 521 kts | 66° |
| 2026-04-26 00:09 | 25.42303 | 40.91174 | 27940 ft | 524 kts | 66° |
| 2026-04-26 00:09 | 25.43678 | 40.94916 | 28219 ft | 525 kts | 66° |
| 2026-04-26 00:10 | 25.45056 | 40.98665 | 28471 ft | 528 kts | 66° |
| 2026-04-26 00:10 | 25.46443 | 41.02443 | 28701 ft | 531 kts | 66° |
| 2026-04-26 00:10 | 25.47835 | 41.06233 | 28937 ft | 534 kts | 65° |
| 2026-04-26 00:10 | 25.49235 | 41.10050 | 29152 ft | 536 kts | 65° |
| 2026-04-26 00:11 | 25.50636 | 41.13883 | 29384 ft | 539 kts | 65° |
| 2026-04-26 00:11 | 25.52043 | 41.17742 | 29583 ft | 542 kts | 65° |
| 2026-04-26 00:11 | 25.53456 | 41.21623 | 29788 ft | 544 kts | 65° |
| 2026-04-26 00:11 | 25.54872 | 41.25516 | 29981 ft | 547 kts | 65° |
| 2026-04-26 00:12 | 25.56293 | 41.29431 | 30153 ft | 549 kts | 65° |
| 2026-04-26 00:12 | 25.57725 | 41.33363 | 30327 ft | 551 kts | 65° |
| 2026-04-26 00:12 | 25.59160 | 41.37302 | 30509 ft | 552 kts | 65° |
| 2026-04-26 00:12 | 25.60592 | 41.41250 | 30713 ft | 552 kts | 65° |
| 2026-04-26 00:13 | 25.62023 | 41.45204 | 30891 ft | 554 kts | 65° |
| 2026-04-26 00:13 | 25.63457 | 41.49166 | 31070 ft | 555 kts | 65° |
| 2026-04-26 00:13 | 25.64890 | 41.53136 | 31309 ft | 554 kts | 65° |
| 2026-04-26 00:13 | 25.66318 | 41.57100 | 31523 ft | 554 kts | 65° |
| 2026-04-26 00:14 | 25.67746 | 41.61061 | 31791 ft | 552 kts | 65° |
| 2026-04-26 00:14 | 25.69173 | 41.65014 | 32043 ft | 552 kts | 65° |
| 2026-04-26 00:14 | 25.70581 | 41.68908 | 32282 ft | 551 kts | 65° |
| 2026-04-26 00:14 | 25.72006 | 41.72850 | 32523 ft | 551 kts | 65° |
| 2026-04-26 00:15 | 25.73427 | 41.76794 | 32760 ft | 551 kts | 65° |
| 2026-04-26 00:15 | 25.74845 | 41.80742 | 33013 ft | 550 kts | 65° |
| 2026-04-26 00:15 | 25.76259 | 41.84686 | 33249 ft | 550 kts | 65° |
| 2026-04-26 00:15 | 25.77672 | 41.88630 | 33483 ft | 550 kts | 65° |
| 2026-04-26 00:16 | 25.79083 | 41.92576 | 33720 ft | 550 kts | 65° |
| 2026-04-26 00:16 | 25.80497 | 41.96523 | 33952 ft | 550 kts | 65° |
| 2026-04-26 00:16 | 25.81912 | 42.00466 | 34167 ft | 550 kts | 65° |
| 2026-04-26 00:16 | 25.83325 | 42.04408 | 34401 ft | 549 kts | 65° |
| 2026-04-26 00:17 | 25.84731 | 42.08338 | 34630 ft | 548 kts | 65° |
| 2026-04-26 00:17 | 25.86132 | 42.12268 | 34867 ft | 547 kts | 65° |
| 2026-04-26 00:17 | 25.87531 | 42.16202 | 35010 ft | 548 kts | 65° |
| 2026-04-26 00:18 | 25.90315 | 42.24038 | 35042 ft | 543 kts | 65° |
| 2026-04-26 00:18 | 25.93087 | 42.31829 | 35040 ft | 542 kts | 65° |
| 2026-04-26 00:19 | 25.95850 | 42.39617 | 35046 ft | 542 kts | 65° |
| 2026-04-26 00:19 | 25.98592 | 42.47404 | 35040 ft | 541 kts | 65° |
| 2026-04-26 00:20 | 26.01332 | 42.55184 | 35050 ft | 540 kts | 65° |
| 2026-04-26 00:20 | 26.04072 | 42.62952 | 35032 ft | 540 kts | 65° |
| 2026-04-26 00:21 | 26.06179 | 42.70965 | 35043 ft | 544 kts | 84° |
| 2026-04-26 00:21 | 26.06857 | 42.79339 | 35071 ft | 544 kts | 85° |
| 2026-04-26 00:22 | 26.07494 | 42.87673 | 35039 ft | 545 kts | 85° |
| 2026-04-26 00:22 | 26.08142 | 42.96079 | 35031 ft | 546 kts | 85° |
| 2026-04-26 00:23 | 26.08795 | 43.04489 | 35020 ft | 546 kts | 85° |
| 2026-04-26 00:23 | 26.09443 | 43.12905 | 35025 ft | 546 kts | 85° |
| 2026-04-26 00:24 | 26.10079 | 43.21326 | 35022 ft | 546 kts | 85° |
| 2026-04-26 00:24 | 26.10711 | 43.29744 | 35018 ft | 546 kts | 85° |
| 2026-04-26 00:25 | 26.11342 | 43.38168 | 35025 ft | 546 kts | 85° |
| 2026-04-26 00:25 | 26.11970 | 43.46595 | 35004 ft | 547 kts | 85° |
| 2026-04-26 00:26 | 26.12594 | 43.55026 | 35013 ft | 547 kts | 85° |
| 2026-04-26 00:26 | 26.13215 | 43.63455 | 35022 ft | 547 kts | 84° |
| 2026-04-26 00:27 | 26.13821 | 43.71890 | 35029 ft | 547 kts | 85° |
| 2026-04-26 00:27 | 26.14423 | 43.80326 | 35045 ft | 547 kts | 85° |
| 2026-04-26 00:28 | 26.15027 | 43.88759 | 35031 ft | 547 kts | 85° |
| 2026-04-26 00:28 | 26.15618 | 43.97196 | 35031 ft | 547 kts | 85° |
| 2026-04-26 00:29 | 26.16212 | 44.05639 | 35028 ft | 547 kts | 85° |
| 2026-04-26 00:29 | 26.16794 | 44.14018 | 35040 ft | 547 kts | 85° |
| 2026-04-26 00:30 | 26.17376 | 44.22451 | 35035 ft | 546 kts | 85° |
| 2026-04-26 00:30 | 26.17950 | 44.30876 | 35061 ft | 546 kts | 85° |
| 2026-04-26 00:31 | 26.18522 | 44.39303 | 35055 ft | 546 kts | 85° |
| 2026-04-26 00:31 | 26.19088 | 44.47725 | 35045 ft | 545 kts | 84° |
| 2026-04-26 00:32 | 26.19651 | 44.56146 | 35055 ft | 545 kts | 85° |
| 2026-04-26 00:32 | 26.20478 | 44.68783 | 35048 ft | 545 kts | 85° |
| 2026-04-26 00:33 | 26.21025 | 44.77199 | 35089 ft | 545 kts | 85° |
| 2026-04-26 00:33 | 26.21571 | 44.85623 | 35072 ft | 545 kts | 85° |
| 2026-04-26 00:34 | 26.22107 | 44.94046 | 35062 ft | 545 kts | 85° |
| 2026-04-26 00:34 | 26.22643 | 45.02477 | 35043 ft | 546 kts | 85° |
| 2026-04-26 00:35 | 26.23175 | 45.10905 | 35052 ft | 546 kts | 85° |
| 2026-04-26 00:35 | 26.23694 | 45.19335 | 35057 ft | 545 kts | 85° |
| 2026-04-26 00:36 | 26.24213 | 45.27761 | 35061 ft | 545 kts | 85° |
| 2026-04-26 00:36 | 26.24727 | 45.36188 | 35066 ft | 545 kts | 85° |
| 2026-04-26 00:37 | 26.25226 | 45.44606 | 35069 ft | 544 kts | 85° |
| 2026-04-26 00:37 | 26.25730 | 45.53016 | 35081 ft | 544 kts | 85° |
| 2026-04-26 00:38 | 26.26239 | 45.61422 | 35084 ft | 544 kts | 85° |
| 2026-04-26 00:38 | 26.26734 | 45.69830 | 35079 ft | 544 kts | 85° |
| 2026-04-26 00:39 | 26.27220 | 45.78231 | 35074 ft | 544 kts | 85° |
| 2026-04-26 00:39 | 26.27698 | 45.86586 | 35077 ft | 544 kts | 85° |
| 2026-04-26 00:40 | 26.28182 | 45.94995 | 35077 ft | 544 kts | 85° |
| 2026-04-26 00:40 | 26.28653 | 46.03397 | 35058 ft | 543 kts | 85° |
| 2026-04-26 00:41 | 26.29120 | 46.11787 | 35070 ft | 542 kts | 85° |
| 2026-04-26 00:41 | 26.29579 | 46.20165 | 35083 ft | 541 kts | 85° |
| 2026-04-26 00:42 | 26.30036 | 46.28541 | 35073 ft | 541 kts | 85° |
| 2026-04-26 00:42 | 26.30483 | 46.36914 | 35073 ft | 541 kts | 85° |
| 2026-04-26 00:43 | 26.30927 | 46.45282 | 35060 ft | 541 kts | 85° |
| 2026-04-26 00:43 | 26.31370 | 46.53656 | 35050 ft | 541 kts | 85° |
| 2026-04-26 00:44 | 26.31815 | 46.62035 | 35049 ft | 541 kts | 85° |
| 2026-04-26 00:44 | 26.32251 | 46.70415 | 35041 ft | 541 kts | 85° |
| 2026-04-26 00:45 | 26.32603 | 46.77437 | 35053 ft | 541 kts | 85° |
| 2026-04-26 00:45 | 26.33087 | 46.87177 | 35057 ft | 541 kts | 85° |
| 2026-04-26 00:46 | 26.33503 | 46.95554 | 35066 ft | 542 kts | 85° |
| 2026-04-26 00:46 | 26.33916 | 47.03946 | 35063 ft | 542 kts | 85° |
| 2026-04-26 00:47 | 26.34329 | 47.12323 | 35069 ft | 541 kts | 85° |
| 2026-04-26 00:47 | 26.34737 | 47.20702 | 35078 ft | 541 kts | 85° |
| 2026-04-26 00:48 | 26.35135 | 47.29059 | 35076 ft | 540 kts | 85° |
| 2026-04-26 00:48 | 26.35520 | 47.37423 | 35072 ft | 540 kts | 85° |
| 2026-04-26 00:49 | 26.35905 | 47.45777 | 35069 ft | 539 kts | 85° |
| 2026-04-26 00:49 | 26.36289 | 47.54125 | 35071 ft | 539 kts | 85° |
| 2026-04-26 00:50 | 26.36666 | 47.62469 | 35080 ft | 538 kts | 85° |
| 2026-04-26 00:50 | 26.37032 | 47.70791 | 35078 ft | 537 kts | 85° |
| 2026-04-26 00:51 | 26.37398 | 47.79102 | 35076 ft | 536 kts | 85° |
| 2026-04-26 00:51 | 26.37761 | 47.87402 | 35076 ft | 535 kts | 86° |
| 2026-04-26 00:52 | 26.38121 | 47.95685 | 35072 ft | 534 kts | 86° |
| 2026-04-26 00:52 | 26.38465 | 48.03947 | 35076 ft | 534 kts | 86° |
| 2026-04-26 00:53 | 26.38807 | 48.12208 | 35050 ft | 533 kts | 86° |
| 2026-04-26 00:53 | 26.39148 | 48.20407 | 35047 ft | 533 kts | 86° |
| 2026-04-26 00:54 | 26.39490 | 48.28657 | 35042 ft | 533 kts | 86° |
| 2026-04-26 00:54 | 26.39818 | 48.36908 | 35041 ft | 532 kts | 86° |
| 2026-04-26 00:55 | 26.40080 | 48.43747 | 35047 ft | 532 kts | 86° |
| 2026-04-26 00:55 | 26.40393 | 48.51917 | 34831 ft | 533 kts | 86° |
| 2026-04-26 00:56 | 26.40550 | 48.56044 | 34603 ft | 533 kts | 86° |
| 2026-04-26 00:56 | 26.40709 | 48.60179 | 34371 ft | 533 kts | 86° |
| 2026-04-26 00:56 | 26.40866 | 48.64307 | 34143 ft | 533 kts | 86° |
| 2026-04-26 00:56 | 26.41022 | 48.68428 | 33896 ft | 531 kts | 86° |
| 2026-04-26 00:57 | 26.41176 | 48.72540 | 33641 ft | 528 kts | 86° |
| 2026-04-26 00:57 | 26.41327 | 48.76614 | 33355 ft | 524 kts | 86° |
| 2026-04-26 00:57 | 26.41475 | 48.80664 | 32683 ft | 522 kts | 87° |
| 2026-04-26 00:57 | 26.41622 | 48.84699 | 32030 ft | 518 kts | 88° |
| 2026-04-26 00:58 | 26.41769 | 48.88702 | 31385 ft | 515 kts | 88° |
| 2026-04-26 00:58 | 26.41913 | 48.92662 | 30965 ft | 506 kts | 88° |
| 2026-04-26 00:58 | 26.42054 | 48.96562 | 30467 ft | 499 kts | 88° |
| 2026-04-26 00:58 | 26.42190 | 49.00397 | 30013 ft | 492 kts | 89° |
| 2026-04-26 00:59 | 26.42320 | 49.04183 | 29459 ft | 485 kts | 89° |
| 2026-04-26 00:59 | 26.42450 | 49.07924 | 28871 ft | 480 kts | 89° |
| 2026-04-26 00:59 | 26.42579 | 49.11628 | 28276 ft | 476 kts | 89° |
| 2026-04-26 00:59 | 26.42707 | 49.15302 | 27695 ft | 472 kts | 89° |
| 2026-04-26 01:00 | 26.42831 | 49.18943 | 27117 ft | 468 kts | 89° |
| 2026-04-26 01:00 | 26.42953 | 49.22567 | 26552 ft | 465 kts | 89° |
| 2026-04-26 01:00 | 26.43072 | 49.26155 | 26001 ft | 462 kts | 89° |
| 2026-04-26 01:00 | 26.43189 | 49.29725 | 25466 ft | 459 kts | 89° |
| 2026-04-26 01:01 | 26.43305 | 49.33270 | 24928 ft | 456 kts | 89° |
| 2026-04-26 01:01 | 26.43423 | 49.36800 | 24397 ft | 454 kts | 89° |
| 2026-04-26 01:01 | 26.43542 | 49.40303 | 23890 ft | 452 kts | 89° |
| 2026-04-26 01:01 | 26.43659 | 49.43798 | 23378 ft | 449 kts | 89° |
| 2026-04-26 01:02 | 26.43772 | 49.47265 | 22751 ft | 443 kts | 89° |
| 2026-04-26 01:02 | 26.43881 | 49.50681 | 21851 ft | 437 kts | 89° |
| 2026-04-26 01:02 | 26.43987 | 49.54040 | 21085 ft | 429 kts | 89° |
| 2026-04-26 01:02 | 26.44091 | 49.57316 | 20545 ft | 416 kts | 89° |
| 2026-04-26 01:03 | 26.44190 | 49.60489 | 20038 ft | 402 kts | 89° |
| 2026-04-26 01:03 | 26.44285 | 49.63561 | 19540 ft | 391 kts | 89° |
| 2026-04-26 01:03 | 26.44373 | 49.66551 | 19055 ft | 380 kts | 89° |
| 2026-04-26 01:03 | 26.44457 | 49.69458 | 18560 ft | 370 kts | 89° |
| 2026-04-26 01:04 | 26.44539 | 49.72293 | 18080 ft | 361 kts | 89° |
| 2026-04-26 01:04 | 26.44621 | 49.75060 | 17620 ft | 354 kts | 90° |
| 2026-04-26 01:04 | 26.44701 | 49.77767 | 17187 ft | 352 kts | 90° |
| 2026-04-26 01:04 | 26.44784 | 49.80483 | 16758 ft | 349 kts | 90° |
| 2026-04-26 01:05 | 26.44866 | 49.83138 | 16344 ft | 346 kts | 90° |
| 2026-04-26 01:05 | 26.44948 | 49.85826 | 15917 ft | 347 kts | 90° |
| 2026-04-26 01:05 | 26.45030 | 49.88559 | 15489 ft | 348 kts | 90° |
| 2026-04-26 01:05 | 26.45109 | 49.91265 | 15065 ft | 349 kts | 91° |
| 2026-04-26 01:06 | 26.45184 | 49.93937 | 14669 ft | 350 kts | 91° |
| 2026-04-26 01:06 | 26.45257 | 49.96649 | 14241 ft | 350 kts | 91° |
| 2026-04-26 01:06 | 26.45332 | 49.99369 | 13806 ft | 351 kts | 91° |
| 2026-04-26 01:06 | 26.45410 | 50.02086 | 13333 ft | 351 kts | 90° |
| 2026-04-26 01:07 | 26.45487 | 50.04803 | 12879 ft | 349 kts | 90° |
| 2026-04-26 01:07 | 26.45562 | 50.07500 | 12470 ft | 346 kts | 90° |
| 2026-04-26 01:07 | 26.45637 | 50.10177 | 12039 ft | 345 kts | 90° |
| 2026-04-26 01:07 | 26.45709 | 50.12846 | 11594 ft | 343 kts | 90° |
| 2026-04-26 01:08 | 26.45781 | 50.15503 | 11154 ft | 342 kts | 90° |
| 2026-04-26 01:08 | 26.45852 | 50.18151 | 10706 ft | 341 kts | 90° |
| 2026-04-26 01:08 | 26.45923 | 50.20791 | 10259 ft | 340 kts | 89° |
| 2026-04-26 01:08 | 26.45993 | 50.23406 | 10050 ft | 331 kts | 90° |
| 2026-04-26 01:09 | 26.46062 | 50.25931 | 9924 ft | 320 kts | 90° |
| 2026-04-26 01:09 | 26.46130 | 50.28379 | 9706 ft | 312 kts | 90° |
| 2026-04-26 01:09 | 26.46193 | 50.30788 | 9363 ft | 309 kts | 90° |
| 2026-04-26 01:09 | 26.46253 | 50.33184 | 8927 ft | 309 kts | 89° |
| 2026-04-26 01:10 | 26.46313 | 50.35572 | 8549 ft | 307 kts | 89° |
| 2026-04-26 01:10 | 26.46527 | 50.37923 | 8199 ft | 303 kts | 77° |
| 2026-04-26 01:10 | 26.47192 | 50.40130 | 7927 ft | 297 kts | 67° |
| 2026-04-26 01:10 | 26.47988 | 50.42257 | 7866 ft | 297 kts | 66° |
| 2026-04-26 01:11 | 26.48773 | 50.44386 | 7806 ft | 296 kts | 67° |
| 2026-04-26 01:11 | 26.49550 | 50.46511 | 7745 ft | 296 kts | 67° |
| 2026-04-26 01:11 | 26.50316 | 50.48616 | 7679 ft | 297 kts | 68° |
| 2026-04-26 01:11 | 26.51097 | 50.50771 | 7609 ft | 294 kts | 67° |
| 2026-04-26 01:12 | 26.51855 | 50.52860 | 7528 ft | 294 kts | 67° |
| 2026-04-26 01:12 | 26.52620 | 50.54982 | 7461 ft | 295 kts | 68° |
| 2026-04-26 01:12 | 26.53384 | 50.57101 | 7393 ft | 293 kts | 68° |
| 2026-04-26 01:12 | 26.53859 | 50.59298 | 7314 ft | 293 kts | 90° |
| 2026-04-26 01:13 | 26.53454 | 50.61505 | 7234 ft | 292 kts | 116° |
| 2026-04-26 01:13 | 26.52268 | 50.63248 | 7161 ft | 275 kts | 139° |
| 2026-04-26 01:13 | 26.50840 | 50.64587 | 7087 ft | 261 kts | 142° |
| 2026-04-26 01:13 | 26.49454 | 50.65814 | 7012 ft | 249 kts | 143° |
| 2026-04-26 01:14 | 26.48098 | 50.67015 | 6946 ft | 248 kts | 143° |
| 2026-04-26 01:14 | 26.46745 | 50.68196 | 6875 ft | 247 kts | 143° |
| 2026-04-26 01:14 | 26.45392 | 50.69386 | 6804 ft | 247 kts | 143° |
| 2026-04-26 01:14 | 26.44042 | 50.70567 | 6729 ft | 247 kts | 143° |
| 2026-04-26 01:15 | 26.42689 | 50.71760 | 6660 ft | 249 kts | 143° |
| 2026-04-26 01:15 | 26.41332 | 50.72962 | 6591 ft | 248 kts | 143° |
| 2026-04-26 01:15 | 26.39981 | 50.74142 | 6519 ft | 245 kts | 143° |
| 2026-04-26 01:15 | 26.38630 | 50.75313 | 6450 ft | 247 kts | 143° |
| 2026-04-26 01:16 | 26.37275 | 50.76488 | 6376 ft | 245 kts | 143° |
| 2026-04-26 01:16 | 26.35927 | 50.77646 | 6306 ft | 244 kts | 143° |
| 2026-04-26 01:16 | 26.34585 | 50.78803 | 6219 ft | 244 kts | 143° |
| 2026-04-26 01:16 | 26.33236 | 50.79970 | 6159 ft | 246 kts | 143° |
| 2026-04-26 01:17 | 26.31887 | 50.81127 | 6077 ft | 245 kts | 143° |
| 2026-04-26 01:17 | 26.30524 | 50.82299 | 5747 ft | 248 kts | 143° |
| 2026-04-26 01:17 | 26.29154 | 50.83464 | 5388 ft | 248 kts | 143° |
| 2026-04-26 01:17 | 26.27767 | 50.84624 | 5023 ft | 249 kts | 142° |
| 2026-04-26 01:18 | 26.26279 | 50.85586 | 4662 ft | 249 kts | 165° |
| 2026-04-26 01:18 | 26.24589 | 50.85649 | 4292 ft | 245 kts | 199° |
| 2026-04-26 01:18 | 26.23039 | 50.84913 | 3934 ft | 242 kts | 211° |
| 2026-04-26 01:18 | 26.21565 | 50.83994 | 3570 ft | 243 kts | 213° |
| 2026-04-26 01:19 | 26.20243 | 50.82844 | 3095 ft | 245 kts | 233° |
| 2026-04-26 01:19 | 26.19360 | 50.81293 | 2931 ft | 231 kts | 252° |
| 2026-04-26 01:19 | 26.18973 | 50.79598 | 2777 ft | 216 kts | 270° |
| 2026-04-26 01:19 | 26.19043 | 50.77976 | 2582 ft | 204 kts | 287° |
| 2026-04-26 01:20 | 26.19496 | 50.76528 | 2393 ft | 193 kts | 302° |
| 2026-04-26 01:20 | 26.20177 | 50.75308 | 2137 ft | 184 kts | 306° |
| 2026-04-26 01:20 | 26.20854 | 50.74139 | 1907 ft | 174 kts | 307° |
| 2026-04-26 01:20 | 26.21486 | 50.73046 | 1690 ft | 163 kts | 307° |
| 2026-04-26 01:21 | 26.22079 | 50.72021 | 1486 ft | 153 kts | 308° |
| 2026-04-26 01:21 | 26.22630 | 50.71067 | 1318 ft | 141 kts | 308° |
| 2026-04-26 01:21 | 26.23150 | 50.70169 | 1133 ft | 136 kts | 307° |
| 2026-04-26 01:21 | 26.23661 | 50.69287 | 956 ft | 135 kts | 307° |
| 2026-04-26 01:22 | 26.24171 | 50.68406 | 790 ft | 135 kts | 305° |
| 2026-04-26 01:22 | 26.24676 | 50.67533 | 629 ft | 134 kts | 304° |
| 2026-04-26 01:22 | 26.25182 | 50.66660 | 448 ft | 134 kts | 304° |
| 2026-04-26 01:22 | 26.25680 | 50.65789 | 238 ft | 132 kts | 304° |
| 2026-04-26 01:23 | 26.26174 | 50.64928 | 94 ft | 131 kts | 304° |
| 2026-04-26 01:23 | 26.26650 | 50.64110 | 18 ft | 132 kts | 304° |
| 2026-04-26 01:23 | 26.26924 | 50.63654 | 15 ft | 100 kts | 301° |
| 2026-04-26 01:23 | 26.27253 | 50.63069 | 17 ft | 60 kts | 303° |
| 2026-04-26 01:24 | 26.27419 | 50.62780 | 16 ft | 13 kts | 303° |
| 2026-04-26 01:24 | 26.27450 | 50.62713 | 17 ft | 9 kts | 285° |
| 2026-04-26 01:24 | 26.27450 | 50.62652 | 17 ft | 6 kts | 253° |
| 2026-04-26 01:24 | 26.27394 | 50.62607 | 17 ft | 17 kts | 205° |